Time;durP1;ratioP1;P1;durP2;ratioP2;P2;SDS_P1;SDS_P2;PMS_P1;PMS_P2;Temp;Humidity;BMP_temperature;BMP_pressure;BME280_temperature;BME280_humidity;BME280_pressure;Samples;Min_cycle;Max_cycle;Signal;HPM_P1;HPM_P2
2021/01/03 00:01:44;;;;;;;10.68;8.40;;;17.40;53.80;;;;;;5085277;28;21035;-59
2021/01/03 00:04:10;;;;;;;8.88;7.97;;;17.30;53.80;;;;;;5085538;28;20228;-60
2021/01/03 00:06:35;;;;;;;7.93;7.13;;;17.30;53.80;;;;;;5085472;28;20209;-60
2021/01/03 00:09:01;;;;;;;10.88;8.38;;;17.30;53.80;;;;;;5085348;28;20178;-60
2021/01/03 00:11:27;;;;;;;9.15;8.20;;;17.30;53.80;;;;;;5085168;28;20178;-59
2021/01/03 00:13:52;;;;;;;8.60;7.65;;;17.20;53.80;;;;;;5085067;28;20425;-61
2021/01/03 00:16:18;;;;;;;9.43;8.43;;;17.20;53.80;;;;;;5085108;28;20267;-61
2021/01/03 00:18:44;;;;;;;9.15;8.23;;;17.20;53.80;;;;;;5084982;28;20189;-61
2021/01/03 00:21:10;;;;;;;9.23;8.32;;;17.20;53.80;;;;;;5084996;28;20979;-61
2021/01/03 00:23:36;;;;;;;9.57;8.40;;;17.20;53.80;;;;;;5085030;28;20170;-61
2021/01/03 00:26:01;;;;;;;9.45;8.38;;;17.20;53.80;;;;;;5084949;28;20500;-61
2021/01/03 00:28:27;;;;;;;9.85;8.13;;;17.10;53.80;;;;;;5084352;28;20197;-60
2021/01/03 00:30:52;;;;;;;9.40;8.32;;;17.10;53.80;;;;;;5084501;28;20276;-59
2021/01/03 00:33:18;;;;;;;8.32;7.22;;;17.20;53.80;;;;;;5084879;28;20185;-60
2021/01/03 00:35:43;;;;;;;9.15;7.63;;;17.10;53.80;;;;;;5084977;28;20184;-61
2021/01/03 00:38:10;;;;;;;10.20;8.63;;;17.10;53.80;;;;;;5084764;28;20181;-60
2021/01/03 00:40:36;;;;;;;9.02;7.53;;;17.10;53.70;;;;;;5084421;28;20204;-61
2021/01/03 00:43:01;;;;;;;8.93;7.80;;;17.10;53.80;;;;;;5084541;28;20639;-61
2021/01/03 00:45:27;;;;;;;8.43;7.53;;;17.10;53.80;;;;;;5084587;28;20178;-61
2021/01/03 00:47:54;;;;;;;8.75;7.85;;;17.10;53.80;;;;;;5084578;28;20217;-60
2021/01/03 00:50:20;;;;;;;9.90;7.88;;;17.10;53.80;;;;;;5066464;28;20198;-60
2021/01/03 00:52:45;;;;;;;8.50;7.45;;;17.00;53.70;;;;;;5084105;28;20507;-60
2021/01/03 00:55:11;;;;;;;11.27;8.23;;;16.90;53.70;;;;;;5084512;28;20201;-60
2021/01/03 00:57:37;;;;;;;9.88;7.80;;;17.00;53.70;;;;;;5084306;28;20262;-58
2021/01/03 01:00:07;;;;;;;8.13;7.15;;;17.00;53.70;;;;;;5084223;28;20184;-60
2021/01/03 01:02:32;;;;;;;8.20;7.40;;;16.90;53.70;;;;;;5084150;28;20696;-60
2021/01/03 01:04:58;;;;;;;7.90;7.10;;;17.00;53.70;;;;;;5084369;28;20170;-60
2021/01/03 01:07:23;;;;;;;10.27;8.30;;;17.00;53.70;;;;;;5084348;28;20174;-60
2021/01/03 01:09:49;;;;;;;10.07;8.00;;;16.90;53.70;;;;;;5084142;28;20202;-59
2021/01/03 01:12:14;;;;;;;9.25;8.30;;;16.90;53.70;;;;;;5084084;28;20188;-61
2021/01/03 01:14:40;;;;;;;8.85;7.47;;;16.90;53.70;;;;;;5084174;28;20176;-60
2021/01/03 01:17:08;;;;;;;8.25;7.45;;;16.90;53.70;;;;;;5084217;28;20235;-61
2021/01/03 01:19:34;;;;;;;9.45;8.45;;;16.90;53.70;;;;;;5084154;28;20178;-60
2021/01/03 01:22:00;;;;;;;9.65;7.75;;;16.90;53.70;;;;;;5084185;28;20174;-61
2021/01/03 01:24:25;;;;;;;7.72;6.93;;;16.90;53.70;;;;;;5084074;28;20173;-61
2021/01/03 01:26:51;;;;;;;8.75;7.35;;;16.90;53.70;;;;;;5083894;28;20245;-60
2021/01/03 01:29:16;;;;;;;8.40;7.50;;;16.90;53.70;;;;;;5083767;28;20233;-60
2021/01/03 01:31:42;;;;;;;7.85;7.05;;;16.80;53.70;;;;;;5084176;28;20174;-60
2021/01/03 01:34:07;;;;;;;8.32;7.30;;;16.80;53.60;;;;;;5084441;28;20623;-58
2021/01/03 01:36:33;;;;;;;7.85;7.05;;;16.80;53.70;;;;;;5083952;28;20206;-60
2021/01/03 01:38:58;;;;;;;8.40;7.30;;;16.80;53.60;;;;;;5084183;28;20181;-60
2021/01/03 01:41:24;;;;;;;9.40;8.40;;;16.80;53.60;;;;;;5085384;28;20178;-61
2021/01/03 01:43:49;;;;;;;8.52;7.65;;;16.80;53.70;;;;;;5088317;28;20187;-61
2021/01/03 01:46:22;;;;;;;7.82;6.97;;;16.80;53.70;;;;;;5088225;28;20177;-61
2021/01/03 01:48:47;;;;;;;8.25;7.43;;;16.80;53.70;;;;;;5088237;28;20215;-61
2021/01/03 01:51:25;;;;;;;9.88;8.23;;;16.80;53.60;;;;;;5070008;28;20564;-61
2021/01/03 01:54:09;;;;;;;7.80;7.00;;;16.70;53.60;;;;;;5087959;28;20534;-61
2021/01/03 01:57:06;;;;;;;8.43;7.63;;;16.70;53.60;;;;;;5088071;28;20172;-58
2021/01/03 01:59:46;;;;;;;7.53;6.72;;;16.70;53.60;;;;;;5088180;28;20166;-60
2021/01/03 02:02:33;;;;;;;9.00;8.10;;;16.70;53.70;;;;;;5069427;28;20173;-59
2021/01/03 02:05:02;;;;;;;8.13;7.32;;;16.70;53.60;;;;;;5071631;28;20635;-59
2021/01/03 02:07:39;;;;;;;8.63;7.80;;;16.70;53.70;;;;;;5087531;28;20173;-60
2021/01/03 02:10:07;;;;;;;8.65;7.22;;;16.70;53.60;;;;;;5087530;28;20240;-55
2021/01/03 02:12:36;;;;;;;9.25;7.68;;;16.70;53.70;;;;;;5087765;28;20686;-60
2021/01/03 02:15:05;;;;;;;10.18;8.27;;;16.70;53.60;;;;;;5087513;28;20177;-61
2021/01/03 02:17:31;;;;;;;9.40;7.72;;;16.60;53.60;;;;;;5087838;28;20332;-61
2021/01/03 02:19:57;;;;;;;8.55;7.65;;;16.60;53.60;;;;;;5069375;28;20265;-61
2021/01/03 02:22:44;;;;;;;7.55;6.68;;;16.60;53.70;;;;;;5069644;28;20178;-61
2021/01/03 02:25:11;;;;;;;8.80;7.63;;;16.60;53.60;;;;;;5069701;28;20189;-58
2021/01/03 02:28:00;;;;;;;8.88;7.97;;;16.60;53.60;;;;;;5086748;28;21000;-59
2021/01/03 02:30:26;;;;;;;8.40;7.57;;;16.60;53.70;;;;;;5086777;28;20206;-60
2021/01/03 02:33:05;;;;;;;9.77;8.05;;;16.60;53.60;;;;;;5069343;28;20192;-59
2021/01/03 02:35:31;;;;;;;8.48;7.57;;;16.60;53.70;;;;;;5069245;28;20226;-59
2021/01/03 02:37:56;;;;;;;8.05;7.25;;;16.60;53.70;;;;;;5069146;28;20182;-60
2021/01/03 02:40:23;;;;;;;8.32;7.32;;;16.60;53.70;;;;;;5068846;28;20188;-60
2021/01/03 02:42:49;;;;;;;7.53;6.78;;;16.60;53.70;;;;;;5069125;28;20246;-61
2021/01/03 02:45:17;;;;;;;7.88;7.18;;;16.50;53.60;;;;;;5086974;28;20213;-60
2021/01/03 02:47:43;;;;;;;9.95;7.20;;;16.50;53.60;;;;;;5087072;28;20626;-61
2021/01/03 02:50:10;;;;;;;8.43;7.53;;;16.60;53.70;;;;;;5087023;28;20276;-60
2021/01/03 02:52:38;;;;;;;8.40;7.15;;;16.50;53.60;;;;;;5086574;28;20192;-60
2021/01/03 02:55:04;;;;;;;9.43;7.63;;;16.50;53.60;;;;;;5086651;28;20169;-60
2021/01/03 02:57:30;;;;;;;8.68;7.78;;;16.50;53.70;;;;;;5086520;28;20184;-60
2021/01/03 02:59:55;;;;;;;7.90;7.10;;;16.50;53.60;;;;;;5086781;28;20181;-59
2021/01/03 03:02:21;;;;;;;8.30;7.43;;;16.50;53.70;;;;;;5086563;28;20185;-60
2021/01/03 03:04:46;;;;;;;9.63;7.35;;;16.50;53.60;;;;;;5086748;28;20178;-60
2021/01/03 03:07:12;;;;;;;8.45;7.60;;;16.50;53.70;;;;;;5086273;28;20935;-60
2021/01/03 03:09:38;;;;;;;8.32;7.43;;;16.50;53.70;;;;;;5086570;28;20194;-60
2021/01/03 03:12:04;;;;;;;8.93;7.32;;;16.50;53.60;;;;;;5086435;28;20642;-61
2021/01/03 03:14:29;;;;;;;8.60;7.57;;;16.40;53.60;;;;;;5086368;28;20238;-60
2021/01/03 03:16:56;;;;;;;8.82;7.43;;;16.40;53.60;;;;;;5086259;28;20186;-60
2021/01/03 03:19:22;;;;;;;8.57;7.68;;;16.40;53.60;;;;;;5086029;28;21077;-60
2021/01/03 03:21:49;;;;;;;8.10;7.30;;;16.40;53.60;;;;;;5086328;28;20288;-61
2021/01/03 03:24:15;;;;;;;9.10;7.60;;;16.40;53.60;;;;;;5086260;28;20170;-60
2021/01/03 03:26:40;;;;;;;8.93;7.60;;;16.40;53.60;;;;;;5086235;28;20189;-60
2021/01/03 03:29:06;;;;;;;8.73;7.35;;;16.40;53.60;;;;;;5085621;28;20197;-59
2021/01/03 03:31:31;;;;;;;8.57;7.68;;;16.40;53.60;;;;;;5067307;28;20182;-59
2021/01/03 03:33:57;;;;;;;8.23;7.30;;;16.40;53.60;;;;;;5085764;28;20257;-58
2021/01/03 03:36:22;;;;;;;8.10;7.25;;;16.40;53.60;;;;;;5086059;28;20226;-60
2021/01/03 03:38:48;;;;;;;8.23;7.25;;;16.40;53.60;;;;;;5085890;28;20239;-59
2021/01/03 03:41:18;;;;;;;8.70;7.32;;;16.30;53.60;;;;;;5085573;28;20196;-60
2021/01/03 03:43:44;;;;;;;8.93;7.57;;;16.40;53.70;;;;;;5085871;28;20166;-61
2021/01/03 03:46:09;;;;;;;8.90;7.32;;;16.30;53.60;;;;;;5085508;28;20181;-59
2021/01/03 03:48:35;;;;;;;8.70;7.70;;;16.30;53.60;;;;;;5085596;28;20182;-60
2021/01/03 03:51:00;;;;;;;8.50;7.70;;;16.30;53.60;;;;;;5085486;28;20283;-60
2021/01/03 03:53:26;;;;;;;9.32;7.68;;;16.30;53.60;;;;;;5085700;28;20181;-60
2021/01/03 03:55:53;;;;;;;10.18;7.65;;;16.30;53.60;;;;;;5085664;28;21162;-59
2021/01/03 03:58:18;;;;;;;9.50;8.02;;;16.30;53.60;;;;;;5085247;28;20178;-58
2021/01/03 04:00:44;;;;;;;8.35;7.32;;;16.30;53.60;;;;;;5085455;28;20184;-60
2021/01/03 04:03:10;;;;;;;8.68;7.78;;;16.30;53.60;;;;;;5085425;28;20205;-60
2021/01/03 04:05:35;;;;;;;8.43;7.63;;;16.30;53.60;;;;;;5084948;28;20181;-59
2021/01/03 04:08:01;;;;;;;9.50;7.88;;;16.30;53.60;;;;;;5085314;28;20189;-60
2021/01/03 04:10:26;;;;;;;8.20;7.40;;;16.20;53.60;;;;;;5085260;28;20209;-59
2021/01/03 04:12:52;;;;;;;8.65;7.57;;;16.30;53.60;;;;;;5066770;28;20603;-60
2021/01/03 04:15:18;;;;;;;9.77;7.88;;;16.20;53.60;;;;;;5085410;28;20166;-60
2021/01/03 04:17:44;;;;;;;9.20;7.30;;;16.20;53.60;;;;;;5085211;28;20760;-60
2021/01/03 04:20:16;;;;;;;9.05;7.70;;;16.20;53.60;;;;;;5085268;28;20542;-59
2021/01/03 04:22:42;;;;;;;9.35;8.45;;;16.20;53.60;;;;;;5084810;28;20284;-60
2021/01/03 04:25:09;;;;;;;9.27;8.05;;;16.20;53.60;;;;;;5084960;28;20627;-60
2021/01/03 04:27:34;;;;;;;8.98;8.05;;;16.20;53.70;;;;;;5084632;28;20568;-60
2021/01/03 04:30:00;;;;;;;9.27;8.27;;;16.20;53.60;;;;;;5084598;28;20193;-59
2021/01/03 04:32:25;;;;;;;9.98;7.93;;;16.20;53.60;;;;;;5084891;28;20264;-59
2021/01/03 04:34:51;;;;;;;10.20;8.43;;;16.20;53.70;;;;;;5084805;28;20208;-57
2021/01/03 04:37:17;;;;;;;8.88;7.97;;;16.20;53.70;;;;;;5084751;28;20185;-58
2021/01/03 04:39:43;;;;;;;10.40;8.27;;;16.20;53.70;;;;;;5084345;28;20231;-60
2021/01/03 04:42:15;;;;;;;9.80;8.07;;;16.20;53.70;;;;;;5084685;28;20177;-61
2021/01/03 04:44:44;;;;;;;9.40;8.43;;;16.20;53.60;;;;;;5067483;28;20218;-60
2021/01/03 04:47:28;;;;;;;8.77;7.88;;;16.10;53.60;;;;;;5066874;28;20177;-61
2021/01/03 04:50:19;;;;;;;9.48;8.30;;;16.10;53.70;;;;;;5084788;28;20202;-61
2021/01/03 04:52:50;;;;;;;9.88;8.55;;;16.10;53.60;;;;;;5046436;28;20655;-59
2021/01/03 04:55:20;;;;;;;8.27;7.47;;;16.10;53.60;;;;;;5084756;28;20247;-59
2021/01/03 04:57:51;;;;;;;9.18;8.23;;;16.10;53.70;;;;;;5084629;28;20283;-59
2021/01/03 05:00:18;;;;;;;9.60;8.57;;;16.10;53.70;;;;;;5084305;28;20173;-60
2021/01/03 05:02:55;;;;;;;10.30;9.30;;;16.10;53.60;;;;;;5066412;28;20679;-59
2021/01/03 05:05:33;;;;;;;9.43;8.40;;;16.10;53.70;;;;;;5084338;28;20846;-60
2021/01/03 05:08:02;;;;;;;10.02;8.27;;;16.10;53.70;;;;;;5066931;28;20639;-60
2021/01/03 05:10:29;;;;;;;8.85;7.57;;;16.00;53.60;;;;;;5084095;28;20212;-60
2021/01/03 05:13:04;;;;;;;9.98;8.48;;;16.00;53.60;;;;;;5084307;28;20177;-60
2021/01/03 05:15:31;;;;;;;8.80;7.90;;;16.00;53.60;;;;;;5066360;28;20227;-59
2021/01/03 05:17:57;;;;;;;8.95;8.05;;;16.00;53.60;;;;;;5084239;28;20178;-61
2021/01/03 05:20:23;;;;;;;9.90;8.63;;;16.00;53.60;;;;;;5084174;28;20239;-62
2021/01/03 05:22:48;;;;;;;9.63;8.63;;;16.00;53.60;;;;;;5084215;28;20177;-61
2021/01/03 05:25:17;;;;;;;9.23;8.23;;;16.00;53.60;;;;;;5083858;28;20527;-61
2021/01/03 05:27:42;;;;;;;10.20;8.48;;;16.00;53.60;;;;;;5084232;28;20194;-60
2021/01/03 05:30:26;;;;;;;9.00;7.53;;;16.00;53.60;;;;;;5083951;28;20198;-61
2021/01/03 05:32:51;;;;;;;9.80;8.10;;;16.00;53.70;;;;;;5066119;28;20184;-59
2021/01/03 05:35:17;;;;;;;9.80;8.50;;;15.90;53.60;;;;;;5083968;28;20174;-59
2021/01/03 05:37:42;;;;;;;9.57;8.32;;;16.00;53.60;;;;;;5084285;28;20177;-61
2021/01/03 05:40:41;;;;;;;10.07;8.65;;;16.00;53.60;;;;;;5065883;28;20170;-62
2021/01/03 05:43:17;;;;;;;11.10;8.38;;;16.00;53.60;;;;;;5050488;28;20587;-60
2021/01/03 05:46:06;;;;;;;10.10;8.45;;;15.90;53.60;;;;;;5084117;28;20181;-61
2021/01/03 05:48:43;;;;;;;10.10;9.07;;;15.90;53.60;;;;;;5084238;28;20166;-62
2021/01/03 05:51:33;;;;;;;10.90;8.63;;;15.90;53.60;;;;;;5065688;28;20206;-61
2021/01/03 05:54:05;;;;;;;9.05;8.15;;;15.90;53.60;;;;;;5067160;28;20186;-61
2021/01/03 05:56:32;;;;;;;10.23;8.90;;;15.90;53.60;;;;;;5066580;28;20972;-60
2021/01/03 05:58:57;;;;;;;9.63;8.63;;;15.90;53.60;;;;;;5083778;28;20285;-61
2021/01/03 06:01:27;;;;;;;9.20;8.30;;;15.90;53.80;;;;;;5065955;28;20364;-60
2021/01/03 06:04:11;;;;;;;8.45;7.28;;;16.00;53.80;;;;;;5083866;28;20251;-60
2021/01/03 06:06:37;;;;;;;8.52;7.63;;;16.10;54.00;;;;;;5083802;28;20173;-59
2021/01/03 06:09:02;;;;;;;8.10;7.30;;;16.20;54.00;;;;;;5083612;28;20184;-61
2021/01/03 06:11:28;;;;;;;7.75;6.90;;;16.40;53.90;;;;;;5083562;28;20612;-58
2021/01/03 06:13:56;;;;;;;8.45;7.55;;;16.70;53.70;;;;;;5083477;28;20178;-59
2021/01/03 06:16:28;;;;;;;7.53;6.72;;;17.00;53.30;;;;;;5083575;28;20180;-62
2021/01/03 06:19:04;;;;;;;7.78;6.82;;;17.30;52.50;;;;;;5083852;28;20296;-62
2021/01/03 06:21:36;;;;;;;7.63;6.80;;;17.70;51.80;;;;;;5083772;28;20170;-62
2021/01/03 06:24:19;;;;;;;8.20;7.40;;;18.00;51.40;;;;;;5065733;28;20200;-62
2021/01/03 06:26:52;;;;;;;7.47;6.78;;;18.30;50.80;;;;;;5083681;28;20197;-61
2021/01/03 06:29:43;;;;;;;7.45;6.70;;;18.50;50.50;;;;;;5087428;28;20643;-61
2021/01/03 06:32:27;;;;;;;8.57;6.10;;;18.60;50.10;;;;;;5069159;28;20511;-60
2021/01/03 06:35:01;;;;;;;7.38;6.65;;;18.70;50.10;;;;;;5086800;28;20166;-61
2021/01/03 06:37:44;;;;;;;6.22;5.60;;;18.80;50.00;;;;;;5070392;28;20173;-60
2021/01/03 06:40:16;;;;;;;7.05;6.35;;;18.80;50.10;;;;;;5071626;28;20283;-62
2021/01/03 06:43:12;;;;;;;6.80;6.10;;;18.80;50.10;;;;;;5068960;28;20642;-61
2021/01/03 06:46:09;;;;;;;6.43;5.82;;;18.80;50.10;;;;;;5014657;28;20271;-62
2021/01/03 06:49:01;;;;;;;7.07;6.38;;;18.70;50.20;;;;;;5055466;28;20345;-62
2021/01/03 06:51:51;;;;;;;6.72;6.03;;;18.70;50.30;;;;;;5086946;28;20268;-62
2021/01/03 06:54:29;;;;;;;6.53;5.93;;;18.70;50.30;;;;;;5069018;28;20266;-61
2021/01/03 06:57:02;;;;;;;6.35;5.75;;;18.70;50.30;;;;;;5086867;28;20180;-61
2021/01/03 06:59:40;;;;;;;7.03;6.35;;;18.60;50.40;;;;;;5068647;28;20178;-61
2021/01/03 07:02:05;;;;;;;6.53;5.88;;;18.60;50.50;;;;;;5086676;28;20174;-61
2021/01/03 07:04:36;;;;;;;6.97;6.35;;;18.50;50.70;;;;;;5068693;28;20176;-61
2021/01/03 07:07:08;;;;;;;6.95;6.25;;;18.40;51.00;;;;;;5068647;28;20174;-61
2021/01/03 07:09:34;;;;;;;6.88;6.18;;;18.30;51.10;;;;;;5068122;28;20218;-61
2021/01/03 07:11:59;;;;;;;6.55;5.85;;;18.10;51.20;;;;;;5086399;28;20253;-62
2021/01/03 07:14:25;;;;;;;6.18;5.63;;;18.10;51.40;;;;;;5086534;28;20178;-61
2021/01/03 07:17:01;;;;;;;6.57;5.97;;;18.10;51.50;;;;;;5086335;28;20205;-61
2021/01/03 07:19:33;;;;;;;6.20;5.60;;;18.10;51.50;;;;;;5069087;28;20181;-62
2021/01/03 07:22:13;;;;;;;6.97;6.28;;;18.10;51.60;;;;;;5086557;28;20347;-62
2021/01/03 07:24:51;;;;;;;6.50;5.90;;;18.10;51.60;;;;;;5068094;28;20193;-61
2021/01/03 07:27:33;;;;;;;6.70;6.10;;;18.10;51.60;;;;;;5086073;28;20205;-61
2021/01/03 07:30:04;;;;;;;6.53;5.85;;;18.10;51.50;;;;;;5085951;28;20204;-60
2021/01/03 07:32:32;;;;;;;6.50;5.85;;;18.10;51.40;;;;;;5086102;28;20243;-61
2021/01/03 07:34:58;;;;;;;6.85;6.15;;;18.10;51.50;;;;;;5085665;28;20179;-61
2021/01/03 07:37:25;;;;;;;6.70;6.10;;;18.10;51.50;;;;;;5085741;28;20204;-60
2021/01/03 07:40:13;;;;;;;5.68;5.18;;;18.00;51.50;;;;;;5084691;28;20181;-60
2021/01/03 07:42:42;;;;;;;6.15;5.55;;;17.90;51.60;;;;;;5086013;28;20170;-60
2021/01/03 07:45:34;;;;;;;6.05;5.43;;;17.90;51.90;;;;;;5085681;28;20170;-61
2021/01/03 07:47:59;;;;;;;6.88;6.18;;;17.80;52.00;;;;;;5074600;28;20196;-61
2021/01/03 07:50:30;;;;;;;6.65;6.05;;;17.70;52.00;;;;;;5085840;28;20205;-60
2021/01/03 07:53:14;;;;;;;6.07;5.57;;;17.70;52.10;;;;;;5085288;28;20174;-60
2021/01/03 07:55:39;;;;;;;6.10;5.50;;;17.80;52.10;;;;;;5085825;28;20170;-60
2021/01/03 07:58:14;;;;;;;6.00;5.50;;;17.80;52.00;;;;;;5085640;28;20199;-59
2021/01/03 08:00:40;;;;;;;6.15;5.55;;;17.80;51.90;;;;;;5069008;28;20541;-60
2021/01/03 08:03:16;;;;;;;6.07;5.47;;;17.90;51.90;;;;;;5085628;28;20181;-56
2021/01/03 08:05:43;;;;;;;6.65;6.05;;;17.90;51.80;;;;;;5067720;28;20170;-59
2021/01/03 08:08:17;;;;;;;6.10;5.50;;;17.90;51.90;;;;;;5085241;28;20228;-60
2021/01/03 08:10:44;;;;;;;6.35;5.75;;;17.80;51.90;;;;;;5085164;28;20201;-60
2021/01/03 08:13:19;;;;;;;6.40;5.80;;;17.80;52.00;;;;;;5085134;28;20204;-61
2021/01/03 08:15:45;;;;;;;6.50;5.88;;;17.70;52.20;;;;;;5069173;28;20246;-61
2021/01/03 08:18:15;;;;;;;6.43;5.82;;;17.60;52.30;;;;;;5085390;28;20578;-62
2021/01/03 08:20:41;;;;;;;6.65;5.95;;;17.60;52.40;;;;;;5067285;28;20166;-62
2021/01/03 08:23:16;;;;;;;5.72;5.22;;;17.60;52.50;;;;;;5085329;28;20184;-65
2021/01/03 08:25:42;;;;;;;6.35;5.75;;;17.60;52.40;;;;;;5084781;28;20260;-66
2021/01/03 08:28:14;;;;;;;6.22;5.63;;;17.60;52.50;;;;;;5084987;28;20343;-65
2021/01/03 08:30:40;;;;;;;6.03;5.43;;;17.60;52.40;;;;;;5084832;28;20201;-66
2021/01/03 08:33:28;;;;;;;6.40;5.80;;;17.70;52.40;;;;;;5084728;28;20186;-66
2021/01/03 08:35:54;;;;;;;6.18;5.57;;;17.70;52.20;;;;;;5084902;28;20209;-64
2021/01/03 08:38:27;;;;;;;6.57;5.97;;;17.70;52.20;;;;;;5066691;28;20631;-64
2021/01/03 08:40:53;;;;;;;6.50;5.90;;;17.60;52.30;;;;;;5084938;28;20174;-65
2021/01/03 08:43:20;;;;;;;6.78;6.18;;;17.50;52.30;;;;;;5066523;28;20169;-65
2021/01/03 08:45:47;;;;;;;7.85;6.45;;;17.40;52.30;;;;;;5066600;28;20620;-65
2021/01/03 08:48:23;;;;;;;6.38;5.78;;;17.40;52.50;;;;;;5066813;28;20177;-66
2021/01/03 08:50:48;;;;;;;6.78;6.00;;;17.40;52.70;;;;;;5067436;28;20983;-66
2021/01/03 08:53:22;;;;;;;6.90;5.95;;;17.40;52.60;;;;;;5084842;28;20189;-65
2021/01/03 08:55:48;;;;;;;6.43;5.53;;;17.30;52.60;;;;;;5066515;28;20166;-65
2021/01/03 08:58:16;;;;;;;5.97;5.38;;;17.40;52.70;;;;;;5084806;28;20170;-65
2021/01/03 09:00:43;;;;;;;5.53;5.03;;;17.40;52.60;;;;;;5066631;28;20189;-65
2021/01/03 09:03:14;;;;;;;7.43;6.72;;;17.40;52.50;;;;;;5066730;28;20174;-64
2021/01/03 09:05:40;;;;;;;5.75;5.25;;;17.40;52.50;;;;;;5084139;28;20188;-66
2021/01/03 09:08:06;;;;;;;5.65;5.15;;;17.40;52.60;;;;;;5066596;28;20624;-67
2021/01/03 09:10:31;;;;;;;6.25;5.47;;;17.30;52.50;;;;;;5066323;28;20210;-65
2021/01/03 09:13:20;;;;;;;6.35;5.75;;;17.30;52.60;;;;;;5084102;28;20177;-69
2021/01/03 09:15:52;;;;;;;5.93;5.32;;;17.20;52.60;;;;;;5067531;28;20169;-65
2021/01/03 09:18:29;;;;;;;5.60;4.80;;;17.20;52.70;;;;;;5066325;28;20555;-67
2021/01/03 09:21:01;;;;;;;5.72;5.13;;;17.20;52.70;;;;;;5084082;28;20173;-67
2021/01/03 09:23:29;;;;;;;5.97;5.40;;;17.20;52.80;;;;;;5066944;28;20255;-66
2021/01/03 09:25:56;;;;;;;6.38;5.78;;;17.20;52.80;;;;;;5066328;28;20162;-66
2021/01/03 09:28:28;;;;;;;5.45;4.95;;;17.20;52.70;;;;;;5066063;28;20200;-67
2021/01/03 09:31:19;;;;;;;6.57;5.40;;;17.20;52.60;;;;;;5066323;28;20646;-66
2021/01/03 09:34:07;;;;;;;5.00;4.60;;;17.30;52.60;;;;;;5084443;28;20184;-65
2021/01/03 09:36:47;;;;;;;5.68;5.15;;;17.20;52.60;;;;;;5068749;28;20289;-65
2021/01/03 09:39:39;;;;;;;6.05;5.45;;;17.20;52.60;;;;;;5083881;28;20209;-65
2021/01/03 09:42:25;;;;;;;5.88;5.30;;;17.10;52.60;;;;;;5069046;28;20185;-66
2021/01/03 09:45:22;;;;;;;5.28;4.78;;;17.10;52.70;;;;;;5069514;28;20292;-65
2021/01/03 09:47:48;;;;;;;5.93;5.07;;;17.10;52.80;;;;;;5068826;28;20174;-65
2021/01/03 09:50:22;;;;;;;5.85;5.25;;;17.10;52.80;;;;;;5066152;28;20231;-65
2021/01/03 09:53:13;;;;;;;5.43;4.97;;;17.10;52.80;;;;;;5084180;28;20173;-66
2021/01/03 09:55:48;;;;;;;5.30;4.80;;;17.10;52.80;;;;;;5068522;28;20174;-66
2021/01/03 09:58:13;;;;;;;4.60;4.20;;;17.10;52.80;;;;;;5084054;28;20169;-65
2021/01/03 10:00:45;;;;;;;5.10;4.70;;;17.10;52.80;;;;;;5083996;28;20173;-64
2021/01/03 10:03:19;;;;;;;5.30;4.82;;;17.20;52.80;;;;;;5086629;28;20218;-64
2021/01/03 10:05:45;;;;;;;5.22;4.72;;;17.10;52.60;;;;;;5087752;28;20169;-65
2021/01/03 10:08:33;;;;;;;5.05;4.55;;;17.20;52.70;;;;;;5069780;28;20174;-65
2021/01/03 10:10:59;;;;;;;4.75;4.35;;;17.20;52.60;;;;;;5072398;28;20205;-65
2021/01/03 10:13:26;;;;;;;5.28;4.78;;;17.30;52.60;;;;;;5069542;28;20197;-65
2021/01/03 10:15:52;;;;;;;4.60;4.20;;;17.30;52.50;;;;;;5069577;28;20194;-65
2021/01/03 10:18:38;;;;;;;5.53;5.03;;;17.30;52.40;;;;;;5069724;28;20209;-66
2021/01/03 10:21:26;;;;;;;4.70;4.30;;;17.40;52.40;;;;;;5087209;28;20173;-66
2021/01/03 10:24:11;;;;;;;4.75;4.35;;;17.30;52.30;;;;;;5086951;28;20173;-67
2021/01/03 10:26:37;;;;;;;5.15;4.60;;;17.30;52.40;;;;;;5070898;28;20169;-65
2021/01/03 10:29:03;;;;;;;4.97;4.47;;;17.20;52.30;;;;;;5087473;28;20238;-66
2021/01/03 10:31:41;;;;;;;5.55;5.05;;;17.20;52.50;;;;;;5088727;28;20335;-64
2021/01/03 10:34:07;;;;;;;4.50;4.10;;;17.20;52.60;;;;;;5063512;28;20256;-65
2021/01/03 10:36:32;;;;;;;4.63;4.22;;;17.20;52.60;;;;;;5093419;28;20264;-65
2021/01/03 10:38:58;;;;;;;5.45;4.38;;;17.20;52.70;;;;;;5086908;28;20177;-65
2021/01/03 10:41:30;;;;;;;4.03;3.72;;;17.20;52.60;;;;;;5105319;28;20180;-65
2021/01/03 10:43:56;;;;;;;3.90;3.60;;;17.30;52.70;;;;;;5072429;28;20264;-65
2021/01/03 10:46:22;;;;;;;4.80;4.40;;;17.30;52.60;;;;;;5107416;28;20260;-65
2021/01/03 10:48:47;;;;;;;3.67;3.38;;;17.40;52.60;;;;;;5097827;28;20225;-66
2021/01/03 10:51:13;;;;;;;4.78;4.35;;;17.30;52.50;;;;;;5086520;28;20205;-67
2021/01/03 10:53:38;;;;;;;4.32;3.92;;;17.30;52.60;;;;;;5087002;28;20182;-65
2021/01/03 10:56:04;;;;;;;4.32;3.92;;;17.30;52.60;;;;;;5086707;28;20181;-66
2021/01/03 10:58:30;;;;;;;4.50;4.10;;;17.20;52.60;;;;;;5068263;28;20174;-64
2021/01/03 11:00:55;;;;;;;4.57;4.20;;;17.20;52.60;;;;;;5086564;28;20170;-65
2021/01/03 11:03:21;;;;;;;3.50;3.25;;;17.20;52.80;;;;;;5086828;28;20253;-65
2021/01/03 11:05:46;;;;;;;3.85;3.55;;;17.20;52.80;;;;;;5094348;28;20204;-64
2021/01/03 11:08:12;;;;;;;4.18;3.80;;;17.30;52.90;;;;;;5106978;28;20182;-66
2021/01/03 11:10:38;;;;;;;4.70;4.15;;;17.20;52.90;;;;;;5106821;28;20669;-66
2021/01/03 11:13:03;;;;;;;4.40;4.00;;;17.30;52.90;;;;;;5106664;28;20177;-66
2021/01/03 11:15:29;;;;;;;4.22;3.78;;;17.30;52.90;;;;;;5106193;28;20169;-66
2021/01/03 11:17:54;;;;;;;4.40;4.00;;;17.30;52.80;;;;;;5106530;28;20187;-64
2021/01/03 11:20:21;;;;;;;3.65;3.35;;;17.30;52.70;;;;;;5106410;28;20614;-64
2021/01/03 11:22:47;;;;;;;4.05;3.65;;;17.30;52.70;;;;;;5106446;28;20252;-65
2021/01/03 11:25:13;;;;;;;3.55;3.25;;;17.30;52.80;;;;;;5088624;28;20283;-65
2021/01/03 11:27:38;;;;;;;3.50;3.22;;;17.20;52.80;;;;;;5106372;28;20556;-65
2021/01/03 11:30:06;;;;;;;3.53;3.22;;;17.20;52.90;;;;;;5106361;28;20201;-64
2021/01/03 11:32:31;;;;;;;3.63;3.33;;;17.10;53.00;;;;;;5088430;28;20173;-63
2021/01/03 11:34:57;;;;;;;3.88;3.53;;;17.20;53.10;;;;;;5088101;28;20188;-64
2021/01/03 11:37:25;;;;;;;4.10;3.80;;;17.20;53.10;;;;;;5106249;28;20173;-65
2021/01/03 11:39:51;;;;;;;4.00;3.60;;;17.20;53.10;;;;;;5080261;28;20195;-65
2021/01/03 11:42:26;;;;;;;3.70;3.40;;;17.20;53.00;;;;;;5086136;28;20316;-66
2021/01/03 11:44:52;;;;;;;3.78;3.40;;;17.30;53.00;;;;;;5067293;28;20553;-65
2021/01/03 11:47:18;;;;;;;3.50;3.20;;;17.30;52.90;;;;;;5085689;28;20174;-66
2021/01/03 11:49:44;;;;;;;4.05;3.67;;;17.30;53.00;;;;;;5085595;28;20200;-67
2021/01/03 11:52:10;;;;;;;3.78;3.47;;;17.20;53.10;;;;;;5085540;28;20170;-71
2021/01/03 11:54:36;;;;;;;3.75;3.25;;;17.20;53.40;;;;;;5085697;28;20188;-66
2021/01/03 11:57:01;;;;;;;3.83;3.35;;;17.20;53.50;;;;;;5084555;28;20174;-66
2021/01/03 11:59:27;;;;;;;5.03;3.13;;;17.20;53.60;;;;;;5084735;28;20178;-65
2021/01/03 12:02:00;;;;;;;3.85;3.55;;;17.40;53.70;;;;;;5085318;28;20173;-66
2021/01/03 12:04:26;;;;;;;5.60;3.45;;;17.50;53.40;;;;;;5085507;28;20573;-66
2021/01/03 12:06:56;;;;;;;3.67;3.38;;;17.70;53.00;;;;;;5067267;28;20675;-66
2021/01/03 12:09:22;;;;;;;3.83;3.47;;;18.10;52.60;;;;;;5085528;28;20932;-66
2021/01/03 12:11:51;;;;;;;3.95;3.13;;;18.40;52.10;;;;;;5067419;28;20176;-63
2021/01/03 12:14:16;;;;;;;4.43;3.15;;;18.60;51.60;;;;;;5067384;28;20206;-63
2021/01/03 12:16:42;;;;;;;3.47;3.17;;;18.90;51.20;;;;;;5084893;28;20178;-65
2021/01/03 12:19:07;;;;;;;3.63;3.17;;;19.20;50.70;;;;;;5085296;28;20257;-65
2021/01/03 12:21:33;;;;;;;4.65;3.00;;;19.40;50.50;;;;;;5085289;28;20174;-64
2021/01/03 12:23:59;;;;;;;4.80;3.05;;;19.50;50.10;;;;;;5067136;28;20608;-64
2021/01/03 12:26:35;;;;;;;3.33;3.03;;;19.60;50.00;;;;;;5066353;28;20261;-65
2021/01/03 12:29:00;;;;;;;3.10;2.80;;;19.70;50.00;;;;;;5084927;28;20189;-64
2021/01/03 12:31:33;;;;;;;3.70;2.78;;;19.60;50.10;;;;;;5067342;28;20678;-62
2021/01/03 12:33:58;;;;;;;5.90;3.10;;;19.70;50.20;;;;;;5067097;28;20176;-63
2021/01/03 12:36:24;;;;;;;3.10;2.80;;;19.60;50.30;;;;;;5085127;28;20169;-62
2021/01/03 12:38:49;;;;;;;3.22;2.65;;;19.60;50.30;;;;;;5084691;28;20227;-62
2021/01/03 12:41:19;;;;;;;4.53;2.55;;;19.50;50.50;;;;;;5085194;28;20188;-62
2021/01/03 12:43:46;;;;;;;3.20;2.90;;;19.50;50.60;;;;;;5084728;28;20187;-62
2021/01/03 12:46:12;;;;;;;4.47;3.28;;;19.40;50.70;;;;;;5084963;28;20170;-63
2021/01/03 12:48:37;;;;;;;5.93;3.72;;;19.50;50.90;;;;;;5085204;28;20704;-62
2021/01/03 12:51:03;;;;;;;3.08;2.65;;;19.40;50.90;;;;;;5084650;28;20209;-63
2021/01/03 12:53:29;;;;;;;4.80;2.60;;;19.40;51.00;;;;;;5084298;28;20185;-62
2021/01/03 12:55:54;;;;;;;3.10;2.80;;;19.40;51.10;;;;;;5084235;28;20620;-61
2021/01/03 12:58:20;;;;;;;2.65;2.45;;;19.40;51.20;;;;;;5084869;28;20579;-62
2021/01/03 13:00:45;;;;;;;3.33;2.70;;;19.30;51.40;;;;;;5084596;28;20265;-61